createdAt,value
2018-07-07T00:04:21.826Z,99.90
2018-07-07T00:06:51.452Z,99.90
2018-07-07T00:41:41.376Z,99.90
2018-07-07T00:46:40.194Z,99.90
2018-07-07T00:51:39.024Z,99.90
2018-07-07T01:01:37.782Z,99.90
2018-07-07T01:06:36.630Z,99.90
2018-07-07T01:11:40.141Z,99.90
2018-07-07T01:16:40.246Z,99.90
2018-07-07T01:21:39.662Z,99.90
2018-07-07T01:36:35.280Z,99.90
2018-07-07T01:41:34.164Z,99.90
2018-07-07T01:49:10.036Z,99.90
2018-07-07T02:01:38.920Z,99.90
2018-07-07T02:11:36.730Z,99.90
2018-07-07T02:21:34.235Z,99.90
2018-07-07T02:29:04.448Z,99.90
2018-07-07T02:51:32.288Z,99.90
2018-07-07T02:56:31.110Z,99.90
2018-07-07T03:01:29.987Z,99.90
2018-07-07T03:11:27.184Z,99.90
2018-07-07T03:16:26.127Z,99.90
2018-07-07T03:21:25.080Z,99.90
2018-07-07T03:36:20.594Z,99.90
2018-07-07T03:41:19.387Z,99.90
2018-07-07T03:48:47.523Z,99.90
2018-07-07T03:53:46.384Z,99.90
2018-07-07T03:56:16.031Z,99.90
2018-07-07T04:03:44.365Z,99.90
2018-07-07T04:16:10.798Z,99.90
2018-07-07T04:21:09.803Z,99.90
2018-07-07T04:23:39.457Z,99.90
2018-07-07T04:26:09.656Z,99.90
2018-07-07T04:33:37.969Z,99.90
2018-07-07T04:41:06.027Z,99.90
2018-07-07T04:43:35.707Z,99.90
2018-07-07T04:46:06.273Z,99.90
2018-07-07T04:51:05.388Z,99.90
2018-07-07T04:56:04.736Z,99.90
2018-07-07T04:58:34.381Z,99.90
2018-07-07T05:03:34.718Z,99.90
2018-07-07T05:13:32.490Z,99.90
2018-07-07T05:18:31.436Z,99.90
2018-07-07T05:28:35.424Z,99.90
2018-07-07T05:33:35.147Z,99.90
2018-07-07T05:36:06.212Z,99.90
2018-07-07T05:41:06.140Z,99.90
2018-07-07T05:51:03.968Z,99.90
2018-07-07T05:56:03.284Z,99.90
2018-07-07T05:58:33.520Z,99.90
2018-07-07T06:01:03.320Z,99.90
2018-07-07T06:06:02.180Z,99.90
2018-07-07T06:08:31.845Z,99.90
2018-07-07T06:16:00.934Z,99.90
2018-07-07T06:18:30.782Z,99.90
2018-07-07T06:23:30.125Z,99.90
2018-07-07T06:28:29.277Z,99.90
2018-07-07T06:33:28.323Z,99.90
2018-07-07T06:40:58.153Z,99.90
2018-07-07T06:43:28.326Z,99.90
2018-07-07T06:45:58.637Z,99.90
2018-07-07T06:50:58.721Z,99.90
2018-07-07T06:53:28.490Z,99.90
2018-07-07T06:55:58.309Z,99.90
2018-07-07T07:00:57.445Z,99.90
2018-07-07T07:18:24.222Z,99.90
2018-07-07T07:23:23.184Z,99.90
2018-07-07T07:28:23.988Z,99.90
2018-07-07T07:33:22.867Z,99.90
2018-07-07T07:43:20.467Z,99.90
2018-07-07T07:50:48.600Z,99.90
2018-07-07T07:55:47.358Z,99.90
2018-07-07T08:20:41.948Z,99.90
2018-07-07T08:28:10.014Z,99.90
2018-07-07T08:30:39.642Z,99.90
2018-07-07T08:38:12.477Z,99.90
2018-07-07T08:48:11.744Z,99.90
2018-07-07T08:58:09.386Z,99.90
2018-07-07T09:03:08.310Z,99.90
2018-07-07T09:10:36.322Z,99.90
2018-07-07T09:15:35.838Z,99.90
2018-07-07T09:18:05.579Z,99.90
2018-07-07T09:20:35.317Z,99.90
2018-07-07T09:23:04.949Z,99.90
2018-07-07T09:25:34.618Z,99.90
2018-07-07T09:28:04.234Z,99.90
2018-07-07T09:50:29.210Z,99.90
2018-07-07T09:55:28.196Z,99.90
2018-07-07T10:08:00.401Z,99.90
2018-07-07T10:10:30.234Z,99.90
2018-07-07T10:25:31.104Z,99.90
2018-07-07T11:02:52.205Z,99.90
2018-07-07T11:05:21.838Z,99.90
2018-07-07T11:22:46.870Z,99.90
2018-07-07T11:27:45.742Z,99.90
2018-07-07T11:45:10.620Z,98.20
2018-07-07T11:47:46.821Z,99.00
2018-07-07T12:02:42.447Z,98.80
2018-07-07T12:05:12.200Z,99.10
2018-07-07T12:20:07.946Z,96.60
2018-07-07T12:32:35.738Z,92.50
2018-07-07T12:54:59.107Z,94.30
2018-07-07T13:04:56.328Z,90.50
2018-07-07T13:07:25.979Z,89.90
2018-07-07T13:12:25.244Z,91.50
2018-07-07T13:14:56.281Z,90.00
2018-07-07T13:19:55.407Z,89.90
2018-07-07T13:27:23.480Z,87.70
2018-07-07T13:29:53.308Z,83.90
2018-07-07T13:34:52.162Z,82.20
2018-07-07T13:52:17.234Z,73.20
2018-07-07T13:59:45.304Z,69.50
2018-07-07T14:19:41.550Z,70.40
2018-07-07T14:22:11.250Z,67.00
2018-07-07T14:34:38.872Z,68.30
2018-07-07T14:39:55.459Z,68.40
2018-07-07T14:42:39.096Z,70.10
2018-07-07T14:47:40.468Z,74.60
2018-07-07T15:02:39.506Z,83.60
2018-07-07T15:15:07.847Z,84.90
2018-07-07T15:22:37.622Z,84.30
2018-07-07T15:25:07.620Z,85.30
2018-07-07T15:30:07.723Z,86.70
2018-07-07T15:32:37.736Z,88.10
2018-07-07T15:37:36.619Z,90.20
2018-07-07T15:42:35.808Z,85.60
2018-07-07T15:45:05.551Z,87.00
2018-07-07T15:47:35.255Z,85.80
2018-07-07T15:57:32.541Z,88.70
2018-07-07T16:05:00.641Z,88.50
2018-07-07T16:12:29.462Z,90.00
2018-07-07T16:54:47.969Z,92.00
2018-07-07T17:07:14.881Z,91.70
2018-07-07T17:19:41.374Z,91.00
2018-07-07T17:34:37.415Z,93.40
2018-07-07T17:37:07.126Z,93.70
2018-07-07T18:09:27.761Z,94.30
2018-07-07T18:11:57.427Z,94.20
2018-07-07T18:14:27.152Z,94.50
2018-07-07T18:21:56.042Z,94.40
2018-07-07T18:24:25.716Z,94.30
2018-07-07T18:26:55.401Z,94.50
2018-07-07T18:31:54.288Z,95.10
2018-07-07T18:36:53.133Z,95.50
2018-07-07T18:39:22.739Z,95.60
2018-07-07T18:41:52.458Z,95.80
2018-07-07T18:44:22.240Z,96.20
2018-07-07T18:49:21.135Z,97.10
2018-07-07T18:54:20.033Z,97.80
2018-07-07T18:56:49.831Z,98.40
2018-07-07T18:59:19.420Z,98.00
2018-07-07T19:01:49.116Z,97.60
2018-07-07T19:11:46.547Z,99.50
2018-07-07T19:25:27.373Z,99.90
2018-07-07T19:27:57.105Z,99.90
2018-07-07T19:33:01.483Z,99.90
2018-07-07T19:35:36.574Z,99.90
2018-07-07T19:38:06.192Z,99.90
2018-07-07T19:40:35.939Z,99.90
2018-07-07T19:43:05.726Z,99.90
2018-07-07T19:58:01.406Z,99.90
2018-07-07T20:00:31.202Z,99.90
2018-07-07T20:05:30.066Z,99.90
2018-07-07T20:10:29.237Z,99.90
2018-07-07T20:20:40.608Z,99.90
2018-07-07T20:25:41.708Z,99.90
2018-07-07T20:39:19.187Z,99.90
2018-07-07T20:41:49.728Z,99.90
2018-07-07T20:46:49.014Z,99.90
2018-07-07T20:49:18.651Z,99.90
2018-07-07T20:54:18.268Z,99.90
2018-07-07T21:14:12.299Z,99.90
2018-07-07T21:21:40.311Z,99.90
2018-07-07T21:26:39.162Z,99.90
2018-07-07T21:39:06.229Z,99.90
2018-07-07T21:44:05.181Z,99.90
2018-07-07T21:46:34.892Z,99.90
2018-07-07T21:56:33.994Z,99.90
2018-07-07T21:59:09.207Z,99.90
2018-07-07T22:04:36.747Z,99.90
2018-07-07T22:09:42.785Z,99.90
2018-07-07T22:19:40.144Z,99.90
2018-07-07T22:22:10.716Z,99.90
2018-07-07T22:24:41.620Z,99.90
2018-07-07T22:29:41.709Z,99.90
2018-07-07T22:32:16.837Z,99.90
2018-07-07T22:44:47.120Z,99.90
2018-07-07T22:47:16.796Z,99.90
2018-07-07T22:49:46.426Z,99.90
2018-07-07T22:54:45.408Z,99.90
2018-07-07T23:09:40.956Z,99.90
2018-07-07T23:12:10.552Z,99.90
2018-07-07T23:29:35.391Z,99.90
2018-07-07T23:37:03.388Z,99.90
2018-07-07T23:39:32.978Z,99.90
2018-07-07T23:44:31.819Z,99.90
2018-07-07T23:47:01.435Z,99.90
2018-07-07T23:52:00.216Z,99.90
